Time;durP1;ratioP1;P1;durP2;ratioP2;P2;SDS_P1;SDS_P2;PMS_P1;PMS_P2;Temp;Humidity;BMP_temperature;BMP_pressure;BME280_temperature;BME280_humidity;BME280_pressure;Samples;Min_cycle;Max_cycle;Signal;HPM_P1;HPM_P2
2023/05/30 00:01:14;;;;;;;10.85;1.40;;;11.00;99.90;;;;;;5098148;28;20046;-71
2023/05/30 00:03:44;;;;;;;8.43;1.50;;;11.00;99.90;;;;;;5090371;28;20496;-71
2023/05/30 00:06:11;;;;;;;10.60;1.30;;;10.90;99.90;;;;;;5092927;28;20122;-71
2023/05/30 00:08:37;;;;;;;17.60;2.08;;;10.90;99.90;;;;;;5096680;28;20107;-70
2023/05/30 00:11:06;;;;;;;14.20;1.73;;;10.90;99.90;;;;;;5093736;28;20142;-71
2023/05/30 00:13:34;;;;;;;8.75;1.27;;;10.90;99.90;;;;;;5085253;28;20032;-70
2023/05/30 00:16:03;;;;;;;11.45;1.80;;;10.80;99.90;;;;;;5096786;28;20042;-71
2023/05/30 00:18:35;;;;;;;10.30;3.25;;;10.80;99.90;;;;;;5100193;27;20096;-70
2023/05/30 00:21:05;;;;;;;9.38;1.40;;;10.80;99.90;;;;;;5093307;28;20038;-70
2023/05/30 00:23:32;;;;;;;8.73;1.40;;;10.80;99.90;;;;;;5096856;28;20032;-70
2023/05/30 00:26:04;;;;;;;11.77;1.50;;;10.80;99.90;;;;;;5091112;27;20036;-71
2023/05/30 00:28:30;;;;;;;12.63;1.90;;;10.80;99.90;;;;;;5086969;28;20109;-74
2023/05/30 00:31:02;;;;;;;21.67;2.28;;;10.80;99.90;;;;;;5096922;28;20050;-71
2023/05/30 00:33:36;;;;;;;16.25;2.97;;;10.70;99.90;;;;;;5092876;28;20097;-71
2023/05/30 00:36:02;;;;;;;12.65;2.08;;;10.70;99.90;;;;;;5092069;28;20020;-71
2023/05/30 00:38:27;;;;;;;9.98;1.73;;;10.70;99.90;;;;;;5092435;28;20556;-70
2023/05/30 00:40:53;;;;;;;16.15;1.23;;;10.60;99.90;;;;;;5098099;27;20046;-70
2023/05/30 00:43:19;;;;;;;12.25;2.00;;;10.70;99.90;;;;;;5097133;27;20031;-70
2023/05/30 00:45:46;;;;;;;15.52;2.47;;;10.70;99.90;;;;;;5086368;28;20035;-71
2023/05/30 00:48:12;;;;;;;11.25;1.67;;;10.60;99.90;;;;;;5093044;28;20221;-71
2023/05/30 00:50:41;;;;;;;7.05;1.52;;;10.60;99.90;;;;;;5092523;28;20496;-71
2023/05/30 00:53:08;;;;;;;12.48;2.00;;;10.60;99.90;;;;;;5088281;28;20031;-70
2023/05/30 00:55:37;;;;;;;10.55;2.55;;;10.60;99.90;;;;;;5088041;28;20206;-71
2023/05/30 00:58:03;;;;;;;7.43;1.17;;;10.60;99.90;;;;;;5093460;28;20035;-71
2023/05/30 01:00:37;;;;;;;12.35;1.20;;;10.60;99.90;;;;;;5098243;27;20020;-71
2023/05/30 01:03:03;;;;;;;8.10;1.85;;;10.60;99.90;;;;;;5097469;28;20531;-71
2023/05/30 01:05:31;;;;;;;10.18;1.75;;;10.60;99.90;;;;;;5095846;28;20043;-71
2023/05/30 01:08:00;;;;;;;18.70;2.17;;;10.60;99.90;;;;;;5090808;28;20043;-70
2023/05/30 01:10:26;;;;;;;7.10;1.20;;;10.60;99.90;;;;;;5085028;28;20109;-70
2023/05/30 01:13:06;;;;;;;14.73;1.50;;;10.60;99.90;;;;;;5086546;27;20071;-70
2023/05/30 01:15:49;;;;;;;16.20;1.80;;;10.50;99.90;;;;;;5090383;28;20100;-70
2023/05/30 01:18:58;;;;;;;8.43;2.22;;;10.60;99.90;;;;;;5095195;28;20028;-71
2023/05/30 01:21:31;;;;;;;10.15;1.63;;;10.60;99.90;;;;;;5087938;28;20492;-71
2023/05/30 01:24:13;;;;;;;13.30;3.25;;;10.50;99.90;;;;;;5087751;27;20050;-72
2023/05/30 01:26:59;;;;;;;6.47;2.63;;;10.40;99.90;;;;;;5085501;28;20035;-70
2023/05/30 01:29:25;;;;;;;10.77;1.15;;;10.40;99.90;;;;;;5083905;28;20032;-71
2023/05/30 01:31:52;;;;;;;12.20;1.20;;;10.40;99.90;;;;;;5087812;28;20032;-71
2023/05/30 01:34:19;;;;;;;13.43;1.92;;;10.40;99.90;;;;;;5084415;28;20042;-72
2023/05/30 01:36:44;;;;;;;15.55;2.10;;;10.40;99.90;;;;;;5089903;28;20492;-72
2023/05/30 01:39:10;;;;;;;13.02;2.13;;;10.40;99.90;;;;;;5083275;28;20032;-70
2023/05/30 01:42:08;;;;;;;6.90;1.08;;;10.40;99.90;;;;;;5087424;28;20504;-72
2023/05/30 01:45:11;;;;;;;7.80;1.30;;;10.30;99.90;;;;;;5077796;28;20108;-71
2023/05/30 01:47:56;;;;;;;9.10;1.90;;;10.30;99.90;;;;;;5078738;28;20423;-72
2023/05/30 01:50:26;;;;;;;17.40;1.65;;;10.30;99.90;;;;;;5087682;28;20044;-71
2023/05/30 01:52:59;;;;;;;10.27;1.35;;;10.20;99.90;;;;;;5081336;28;20557;-71
2023/05/30 01:55:26;;;;;;;8.48;1.58;;;10.20;99.90;;;;;;5085904;28;20072;-72
2023/05/30 01:57:55;;;;;;;12.70;1.80;;;10.10;99.90;;;;;;5088765;28;20043;-71
2023/05/30 02:00:21;;;;;;;6.22;1.27;;;10.20;99.90;;;;;;5118005;27;20492;-72
2023/05/30 02:02:48;;;;;;;12.02;2.13;;;10.10;99.90;;;;;;5089608;28;20522;-71
2023/05/30 02:05:13;;;;;;;9.25;1.55;;;10.10;99.90;;;;;;5087239;28;20061;-71
2023/05/30 02:07:39;;;;;;;11.82;1.58;;;10.10;99.90;;;;;;5087378;28;20036;-71
2023/05/30 02:10:05;;;;;;;9.63;1.95;;;10.20;99.90;;;;;;5089461;28;20062;-71
2023/05/30 02:12:31;;;;;;;7.53;1.65;;;10.10;99.90;;;;;;5086254;28;20523;-70
2023/05/30 02:14:57;;;;;;;5.80;1.40;;;10.20;99.90;;;;;;5085874;28;20065;-70
2023/05/30 02:17:24;;;;;;;9.60;1.65;;;10.20;99.90;;;;;;5093661;28;20028;-71
2023/05/30 02:19:50;;;;;;;9.25;2.28;;;10.20;99.90;;;;;;5085332;28;20058;-71
2023/05/30 02:22:18;;;;;;;7.47;1.48;;;10.20;99.90;;;;;;5085311;28;20086;-71
2023/05/30 02:24:44;;;;;;;13.35;1.90;;;10.20;99.90;;;;;;5090947;28;20028;-72
2023/05/30 02:27:13;;;;;;;19.60;1.75;;;10.20;99.90;;;;;;5093317;28;20092;-73
2023/05/30 02:29:38;;;;;;;19.70;2.33;;;10.20;99.90;;;;;;5084322;28;20434;-71
2023/05/30 02:32:04;;;;;;;8.18;1.60;;;10.30;99.90;;;;;;5091162;28;20096;-71
2023/05/30 02:34:33;;;;;;;9.68;1.75;;;10.30;99.90;;;;;;5087177;28;20028;-71
2023/05/30 02:37:01;;;;;;;12.00;1.60;;;10.30;99.90;;;;;;5091467;28;20402;-71
2023/05/30 02:39:32;;;;;;;17.83;2.63;;;10.30;99.90;;;;;;5080027;28;20501;-71
2023/05/30 02:41:58;;;;;;;;;;;10.30;99.90;;;;;;5097083;28;20548;-71
2023/05/30 02:44:23;;;;;;;14.13;1.55;;;10.30;99.90;;;;;;5091986;28;19920;-71
2023/05/30 02:46:49;;;;;;;7.40;1.25;;;10.30;99.90;;;;;;5092829;28;20086;-72
2023/05/30 02:49:14;;;;;;;10.82;1.60;;;10.40;99.90;;;;;;5098958;28;20036;-72
2023/05/30 02:51:41;;;;;;;16.20;2.03;;;10.40;99.90;;;;;;5096861;28;20065;-72
2023/05/30 02:54:06;;;;;;;8.10;2.22;;;10.40;99.90;;;;;;5095766;28;20446;-70
2023/05/30 02:56:32;;;;;;;7.47;1.30;;;10.40;99.90;;;;;;5092572;28;20035;-70
2023/05/30 02:58:59;;;;;;;9.15;2.22;;;10.40;99.90;;;;;;5093365;28;20444;-75
2023/05/30 03:01:24;;;;;;;7.70;1.50;;;10.40;99.90;;;;;;5093608;28;20128;-71
2023/05/30 03:03:53;;;;;;;7.45;1.42;;;10.40;99.90;;;;;;5094461;28;20123;-71
2023/05/30 03:06:18;;;;;;;9.68;1.45;;;10.40;99.90;;;;;;5094318;27;20027;-71
2023/05/30 03:08:44;;;;;;;9.02;2.63;;;10.40;99.90;;;;;;5089076;28;20115;-71
2023/05/30 03:11:13;;;;;;;10.77;2.25;;;10.40;99.90;;;;;;5096392;28;20020;-70
2023/05/30 03:13:46;;;;;;;10.85;1.65;;;10.50;99.90;;;;;;5093056;28;20024;-70
2023/05/30 03:16:14;;;;;;;13.48;2.60;;;10.50;99.90;;;;;;5097125;28;20038;-71
2023/05/30 03:18:40;;;;;;;12.93;2.33;;;10.50;99.90;;;;;;5094624;27;20099;-71
2023/05/30 03:21:05;;;;;;;10.40;1.83;;;10.60;99.90;;;;;;5094979;28;20119;-71
2023/05/30 03:23:31;;;;;;;8.50;1.90;;;10.60;99.90;;;;;;5088387;28;20024;-71
2023/05/30 03:25:56;;;;;;;6.47;1.05;;;10.60;99.90;;;;;;5092097;28;20507;-72
2023/05/30 03:28:22;;;;;;;5.63;1.58;;;10.70;99.90;;;;;;5093117;28;20027;-70
2023/05/30 03:30:48;;;;;;;8.30;1.25;;;10.70;99.90;;;;;;5088812;28;20032;-71
2023/05/30 03:33:13;;;;;;;7.32;1.65;;;10.70;99.90;;;;;;5090976;28;20032;-71
2023/05/30 03:35:39;;;;;;;6.30;1.50;;;10.70;99.90;;;;;;5088873;28;20040;-70
2023/05/30 03:38:10;;;;;;;6.78;1.27;;;10.80;99.90;;;;;;5092359;28;20036;-70
2023/05/30 03:40:41;;;;;;;6.30;1.23;;;10.80;99.90;;;;;;5094326;28;20036;-70
2023/05/30 03:43:11;;;;;;;10.68;3.38;;;10.80;99.90;;;;;;5089753;28;20036;-70
2023/05/30 03:45:36;;;;;;;12.35;1.98;;;10.80;99.90;;;;;;5086391;28;20093;-71
2023/05/30 03:48:02;;;;;;;5.25;1.20;;;10.80;99.90;;;;;;5094215;28;20038;-71
2023/05/30 03:50:27;;;;;;;4.90;1.40;;;10.90;99.90;;;;;;5090021;28;20032;-70
2023/05/30 03:52:53;;;;;;;5.82;1.05;;;10.90;99.90;;;;;;5089053;28;20063;-71
2023/05/30 03:55:19;;;;;;;9.45;3.03;;;10.90;99.90;;;;;;5092151;28;20031;-70
2023/05/30 03:57:45;;;;;;;3.95;1.63;;;11.00;99.90;;;;;;5096201;28;20042;-70
2023/05/30 04:00:12;;;;;;;8.38;1.52;;;11.00;99.90;;;;;;5092814;28;20028;-71
2023/05/30 04:02:43;;;;;;;5.63;1.40;;;11.00;99.90;;;;;;5096760;28;20089;-71
2023/05/30 04:05:09;;;;;;;7.28;1.65;;;11.00;99.90;;;;;;5094480;28;20135;-71
2023/05/30 04:07:38;;;;;;;4.15;1.25;;;11.00;99.90;;;;;;5090118;28;20159;-71
2023/05/30 04:10:04;;;;;;;9.02;1.23;;;11.00;99.90;;;;;;5093253;28;20122;-70
2023/05/30 04:12:29;;;;;;;6.18;1.17;;;11.10;99.90;;;;;;5088053;28;20128;-72
2023/05/30 04:14:55;;;;;;;8.45;1.20;;;11.10;99.90;;;;;;5094148;28;20034;-70
2023/05/30 04:17:21;;;;;;;9.23;2.58;;;11.10;99.90;;;;;;5089989;28;20032;-71
2023/05/30 04:19:47;;;;;;;5.85;1.50;;;11.10;99.90;;;;;;5089491;28;20032;-70
2023/05/30 04:22:15;;;;;;;10.43;2.10;;;11.10;99.90;;;;;;5095452;28;20097;-71
2023/05/30 04:24:41;;;;;;;8.68;1.63;;;11.20;99.90;;;;;;5089396;28;20044;-69
2023/05/30 04:27:06;;;;;;;10.40;1.60;;;11.20;99.90;;;;;;5097828;28;20040;-71
2023/05/30 04:29:40;;;;;;;6.20;1.83;;;11.30;99.90;;;;;;5091373;28;20044;-72
2023/05/30 04:32:06;;;;;;;7.47;1.95;;;11.30;99.90;;;;;;5094978;28;20391;-70
2023/05/30 04:34:32;;;;;;;10.77;1.60;;;11.30;99.90;;;;;;5089439;28;20036;-70
2023/05/30 04:36:58;;;;;;;8.00;1.58;;;11.30;99.90;;;;;;5087800;28;20077;-71
2023/05/30 04:39:23;;;;;;;13.05;2.00;;;11.40;99.90;;;;;;5090745;28;20032;-70
2023/05/30 04:41:54;;;;;;;6.97;1.48;;;11.40;99.90;;;;;;5089800;28;20044;-70
2023/05/30 04:44:23;;;;;;;7.38;1.35;;;11.50;99.90;;;;;;5089574;28;20173;-72
2023/05/30 04:46:48;;;;;;;5.47;1.65;;;11.50;99.90;;;;;;5087477;28;20122;-69
2023/05/30 04:49:16;;;;;;;8.38;1.85;;;11.60;99.90;;;;;;5094817;28;20155;-71
2023/05/30 04:51:45;;;;;;;10.52;1.58;;;11.70;99.90;;;;;;5088106;28;20521;-71
2023/05/30 04:54:13;;;;;;;4.28;1.30;;;11.70;99.90;;;;;;5081790;28;20601;-71
2023/05/30 04:56:40;;;;;;;4.65;1.52;;;11.70;99.90;;;;;;5092243;28;20028;-70
2023/05/30 04:59:05;;;;;;;8.63;1.45;;;11.80;99.90;;;;;;5085387;28;20027;-70
2023/05/30 05:01:35;;;;;;;6.78;1.70;;;11.80;99.90;;;;;;5082125;28;20096;-69
2023/05/30 05:04:01;;;;;;;7.93;1.52;;;11.90;99.90;;;;;;5087129;28;20020;-71
2023/05/30 05:06:27;;;;;;;3.92;1.40;;;11.90;99.90;;;;;;5089405;28;20088;-70
2023/05/30 05:08:53;;;;;;;13.93;1.83;;;12.00;99.90;;;;;;5087959;28;20036;-69
2023/05/30 05:11:18;;;;;;;9.98;2.40;;;12.00;99.90;;;;;;5086990;28;20051;-71
2023/05/30 05:13:44;;;;;;;8.48;1.35;;;12.10;99.90;;;;;;5089178;28;20545;-70
2023/05/30 05:16:10;;;;;;;5.20;1.63;;;12.10;99.90;;;;;;5083796;28;20563;-70
2023/05/30 05:18:42;;;;;;;8.32;1.92;;;12.20;99.90;;;;;;5088374;28;20178;-73
2023/05/30 05:21:07;;;;;;;5.40;1.30;;;12.30;99.90;;;;;;5085116;28;20442;-71
2023/05/30 05:23:33;;;;;;;5.07;1.33;;;12.40;99.90;;;;;;5088014;28;20032;-71
2023/05/30 05:26:01;;;;;;;6.45;1.63;;;12.50;99.90;;;;;;5087196;28;20037;-71
2023/05/30 05:28:27;;;;;;;7.85;1.83;;;12.50;99.90;;;;;;5091194;27;20484;-71
2023/05/30 05:30:53;;;;;;;8.43;1.67;;;12.60;99.90;;;;;;5090000;28;20058;-71
2023/05/30 05:33:21;;;;;;;8.38;2.15;;;12.70;99.90;;;;;;5084712;28;20027;-71
2023/05/30 05:35:50;;;;;;;5.25;1.10;;;12.80;99.90;;;;;;5082100;28;20468;-71
2023/05/30 05:38:19;;;;;;;8.65;1.73;;;12.90;99.90;;;;;;5083835;28;20036;-71
2023/05/30 05:40:45;;;;;;;7.55;1.65;;;12.90;99.90;;;;;;5085825;28;20039;-72
2023/05/30 05:43:10;;;;;;;7.97;1.27;;;12.90;99.90;;;;;;5083714;28;20044;-69
2023/05/30 05:45:36;;;;;;;12.85;1.83;;;13.00;99.90;;;;;;5085095;28;20687;-70
2023/05/30 05:48:05;;;;;;;4.70;1.08;;;13.00;99.90;;;;;;5088918;28;20047;-70
2023/05/30 05:50:30;;;;;;;6.43;1.85;;;13.10;99.90;;;;;;5083568;28;20119;-72
2023/05/30 05:52:56;;;;;;;13.35;1.75;;;13.10;99.90;;;;;;5088112;28;20059;-72
2023/05/30 05:55:28;;;;;;;5.93;1.33;;;13.20;99.90;;;;;;5084923;28;20032;-72
2023/05/30 05:57:54;;;;;;;4.82;1.30;;;13.30;99.90;;;;;;5081666;28;20458;-71
2023/05/30 06:00:20;;;;;;;7.85;1.20;;;13.40;99.90;;;;;;5084763;28;20077;-71
2023/05/30 06:02:45;;;;;;;11.68;2.25;;;13.30;99.90;;;;;;5083240;28;20143;-74
2023/05/30 06:05:11;;;;;;;15.10;1.98;;;13.30;99.90;;;;;;5086152;28;20027;-71
2023/05/30 06:07:36;;;;;;;6.03;1.20;;;13.30;99.90;;;;;;5084295;28;20492;-72
2023/05/30 06:10:02;;;;;;;4.68;1.42;;;13.30;99.90;;;;;;5086755;28;20093;-71
2023/05/30 06:12:28;;;;;;;5.32;1.13;;;13.40;99.90;;;;;;5088111;28;20134;-71
2023/05/30 06:14:53;;;;;;;4.25;0.95;;;13.60;99.90;;;;;;5089486;28;20569;-71
2023/05/30 06:17:19;;;;;;;7.57;1.17;;;14.00;99.90;;;;;;5089533;28;20492;-71
2023/05/30 06:19:44;;;;;;;7.28;1.52;;;14.40;99.90;;;;;;5089144;28;20500;-71
2023/05/30 06:22:10;;;;;;;6.35;0.90;;;14.70;99.90;;;;;;5086090;28;20377;-72
2023/05/30 06:24:36;;;;;;;5.25;1.30;;;15.20;99.90;;;;;;5088802;28;20058;-73
2023/05/30 06:27:05;;;;;;;11.15;1.60;;;15.60;99.50;;;;;;5091969;28;20039;-70
2023/05/30 06:29:33;;;;;;;6.20;1.17;;;16.00;99.40;;;;;;5087223;28;20441;-72
2023/05/30 06:31:59;;;;;;;15.18;1.85;;;16.10;98.20;;;;;;5091049;28;20019;-73
2023/05/30 06:34:25;;;;;;;7.85;1.38;;;16.00;97.90;;;;;;5087599;28;20032;-71
2023/05/30 06:36:50;;;;;;;8.63;1.55;;;15.80;98.40;;;;;;5085489;28;20126;-70
2023/05/30 06:39:16;;;;;;;5.68;1.08;;;15.80;97.90;;;;;;5087286;28;20047;-71
2023/05/30 06:41:45;;;;;;;12.43;1.40;;;15.60;98.40;;;;;;5089772;28;20039;-72
2023/05/30 06:44:11;;;;;;;6.70;1.00;;;16.00;98.30;;;;;;5089725;27;20036;-69
2023/05/30 06:46:40;;;;;;;4.55;1.20;;;16.60;97.90;;;;;;5087161;28;20036;-71
2023/05/30 06:49:05;;;;;;;8.10;1.80;;;17.20;97.30;;;;;;5087515;28;20035;-71
2023/05/30 06:51:31;;;;;;;3.95;1.23;;;17.70;95.50;;;;;;5089930;28;20032;-72
2023/05/30 06:53:57;;;;;;;3.83;0.90;;;17.50;95.50;;;;;;5085525;28;20039;-71
2023/05/30 06:56:23;;;;;;;6.93;1.52;;;17.00;96.30;;;;;;5091249;28;20415;-74
2023/05/30 06:58:48;;;;;;;11.70;1.75;;;16.80;96.60;;;;;;5096410;28;20387;-72
2023/05/30 07:01:17;;;;;;;7.90;1.88;;;16.90;96.90;;;;;;5095705;28;20047;-71
2023/05/30 07:03:43;;;;;;;3.75;1.10;;;17.70;96.00;;;;;;5097401;28;20498;-72
2023/05/30 07:06:08;;;;;;;5.32;0.95;;;18.60;94.80;;;;;;5095621;28;20039;-71
2023/05/30 07:08:34;;;;;;;4.80;1.25;;;19.40;93.80;;;;;;5098547;28;20101;-69
2023/05/30 07:10:59;;;;;;;4.95;1.42;;;20.50;93.30;;;;;;5096827;28;20038;-73
2023/05/30 07:13:25;;;;;;;31.27;1.77;;;20.90;91.30;;;;;;5094069;28;20115;-70
2023/05/30 07:15:51;;;;;;;4.40;1.67;;;20.40;91.30;;;;;;5098478;28;20721;-71
2023/05/30 07:18:17;;;;;;;8.10;1.80;;;19.80;91.70;;;;;;5095442;28;20537;-71
2023/05/30 07:20:43;;;;;;;4.90;1.80;;;19.20;92.50;;;;;;5090691;28;20028;-71
2023/05/30 07:23:08;;;;;;;6.75;1.52;;;18.40;92.70;;;;;;5087521;28;20101;-72
2023/05/30 07:25:36;;;;;;;8.80;2.05;;;18.00;93.50;;;;;;5088724;28;20043;-70
2023/05/30 07:28:05;;;;;;;6.97;1.30;;;17.60;94.10;;;;;;5089369;28;20463;-70
2023/05/30 07:30:34;;;;;;;5.38;1.30;;;17.30;94.60;;;;;;5089409;28;20038;-71
2023/05/30 07:32:59;;;;;;;5.47;1.00;;;17.50;95.50;;;;;;5075190;28;20497;-72
2023/05/30 07:35:25;;;;;;;4.00;0.85;;;18.20;94.30;;;;;;5086624;28;20067;-72
2023/05/30 07:37:52;;;;;;;7.35;1.10;;;18.60;93.70;;;;;;5093086;28;20739;-71
2023/05/30 07:40:18;;;;;;;9.15;1.52;;;19.60;93.40;;;;;;5091532;28;20039;-72
2023/05/30 07:42:44;;;;;;;4.38;1.40;;;20.50;92.00;;;;;;5092023;27;20032;-73
2023/05/30 07:45:10;;;;;;;4.40;1.13;;;21.70;91.40;;;;;;5094306;28;20040;-70
2023/05/30 07:47:35;;;;;;;5.38;1.92;;;23.30;89.80;;;;;;5090813;27;20037;-70
2023/05/30 07:50:01;;;;;;;5.05;1.30;;;23.30;87.10;;;;;;5085432;28;20054;-72
2023/05/30 07:52:27;;;;;;;9.20;1.60;;;23.00;86.40;;;;;;5093666;27;20503;-72
2023/05/30 07:54:52;;;;;;;7.20;1.45;;;22.10;86.40;;;;;;5088923;28;20047;-73
2023/05/30 07:57:18;;;;;;;5.32;2.00;;;21.60;88.30;;;;;;5093641;28;20038;-72
2023/05/30 07:59:44;;;;;;;9.43;1.50;;;21.40;88.90;;;;;;5093785;28;20527;-71
2023/05/30 08:02:09;;;;;;;9.32;1.17;;;21.30;88.70;;;;;;5089302;28;20039;-71
2023/05/30 08:04:36;;;;;;;6.72;1.50;;;21.30;89.50;;;;;;5088159;28;20059;-71
2023/05/30 08:07:02;;;;;;;6.20;1.63;;;21.30;89.40;;;;;;5102558;28;20029;-72
2023/05/30 08:09:29;;;;;;;8.05;1.85;;;21.30;88.20;;;;;;5103415;28;20043;-71
2023/05/30 08:11:55;;;;;;;7.32;1.10;;;20.70;90.10;;;;;;5099116;28;20070;-71
2023/05/30 08:14:20;;;;;;;4.85;1.48;;;20.20;90.50;;;;;;5096012;28;20028;-71
2023/05/30 08:16:46;;;;;;;6.10;1.05;;;19.60;90.80;;;;;;5087676;28;20032;-71
2023/05/30 08:19:12;;;;;;;6.22;1.67;;;19.10;91.80;;;;;;5092596;28;20081;-71
2023/05/30 08:21:38;;;;;;;5.57;1.50;;;19.00;92.10;;;;;;5089636;28;20043;-71
2023/05/30 08:24:04;;;;;;;5.93;1.48;;;18.80;92.20;;;;;;5091705;28;20035;-71
2023/05/30 08:26:30;;;;;;;6.47;1.25;;;18.90;92.50;;;;;;5095200;28;20214;-71
2023/05/30 08:28:56;;;;;;;5.25;1.48;;;18.90;92.90;;;;;;5094476;28;20062;-71
2023/05/30 08:31:25;;;;;;;13.73;1.95;;;18.80;92.30;;;;;;5093149;27;20043;-71
2023/05/30 08:33:53;;;;;;;12.02;1.75;;;18.50;92.60;;;;;;5090036;28;20395;-70
2023/05/30 08:36:21;;;;;;;6.47;1.58;;;18.40;93.00;;;;;;5087660;27;20063;-71
2023/05/30 08:38:49;;;;;;;8.77;1.98;;;18.40;93.10;;;;;;5088106;28;20081;-71
2023/05/30 08:41:17;;;;;;;8.30;1.52;;;18.40;93.00;;;;;;5090992;28;20031;-71
2023/05/30 08:43:43;;;;;;;4.88;1.05;;;18.40;93.30;;;;;;5087583;28;20066;-71
2023/05/30 08:46:09;;;;;;;4.18;0.90;;;18.60;93.50;;;;;;5088378;28;20437;-72
2023/05/30 08:48:42;;;;;;;6.57;0.90;;;18.70;92.90;;;;;;5093499;28;20036;-71
2023/05/30 08:51:15;;;;;;;5.03;0.80;;;18.70;93.20;;;;;;5089264;28;20032;-72
2023/05/30 08:53:56;;;;;;;9.63;1.13;;;18.80;93.10;;;;;;5093635;27;20031;-71
2023/05/30 08:56:32;;;;;;;7.85;1.10;;;18.70;92.80;;;;;;5041455;28;20404;-70
2023/05/30 08:59:00;;;;;;;9.40;1.20;;;18.80;93.20;;;;;;5016742;28;20034;-70
2023/05/30 09:01:27;;;;;;;9.70;1.33;;;18.80;93.40;;;;;;5018055;28;20060;-70
2023/05/30 09:03:54;;;;;;;7.18;1.10;;;18.90;92.90;;;;;;5024349;28;20083;-70
2023/05/30 09:06:21;;;;;;;4.80;1.35;;;18.90;93.40;;;;;;5045118;28;20029;-70
2023/05/30 09:08:49;;;;;;;5.10;1.10;;;19.00;92.70;;;;;;5043616;28;20033;-70
2023/05/30 09:11:15;;;;;;;7.60;1.23;;;18.90;92.90;;;;;;5046127;28;20039;-70
2023/05/30 09:13:41;;;;;;;6.53;1.40;;;18.90;92.90;;;;;;5045686;28;20037;-70
2023/05/30 09:16:08;;;;;;;6.82;1.98;;;18.80;92.50;;;;;;5050078;28;20090;-69
2023/05/30 09:18:34;;;;;;;7.97;1.13;;;18.80;93.40;;;;;;5047431;28;20052;-70
2023/05/30 09:21:00;;;;;;;17.27;1.10;;;18.90;93.50;;;;;;5045614;28;20029;-70
2023/05/30 09:23:26;;;;;;;4.00;0.80;;;18.80;93.40;;;;;;5043340;28;20041;-69
2023/05/30 09:25:51;;;;;;;5.22;1.13;;;18.80;93.20;;;;;;5048273;28;20410;-70
2023/05/30 09:28:27;;;;;;;6.20;1.27;;;18.80;93.60;;;;;;5044291;28;20061;-70
2023/05/30 09:31:01;;;;;;;5.28;1.20;;;18.80;92.90;;;;;;5047852;28;20034;-70
2023/05/30 09:33:46;;;;;;;4.82;1.40;;;18.60;93.30;;;;;;5044981;28;20491;-70
2023/05/30 09:36:24;;;;;;;5.57;0.80;;;18.60;93.90;;;;;;5048857;28;20094;-70
2023/05/30 09:39:01;;;;;;;4.15;1.05;;;18.70;94.00;;;;;;5040762;28;20041;-69
2023/05/30 09:41:28;;;;;;;9.13;1.63;;;18.90;93.30;;;;;;5040769;28;20604;-69
2023/05/30 09:43:55;;;;;;;5.25;1.42;;;18.90;93.80;;;;;;5044418;28;20036;-71
2023/05/30 09:46:26;;;;;;;7.38;1.50;;;18.90;94.20;;;;;;5046757;28;20296;-69
2023/05/30 09:48:52;;;;;;;4.10;1.15;;;19.10;94.50;;;;;;5048056;28;20052;-70
2023/05/30 09:51:22;;;;;;;7.60;1.40;;;19.00;94.10;;;;;;5039206;28;20233;-70
2023/05/30 09:53:59;;;;;;;3.42;1.23;;;18.80;93.00;;;;;;5043427;28;20025;-71
2023/05/30 09:56:37;;;;;;;5.90;1.00;;;18.80;93.30;;;;;;5044106;28;20522;-70
2023/05/30 09:59:09;;;;;;;7.47;1.42;;;18.80;94.20;;;;;;5047432;28;20032;-69
2023/05/30 10:01:37;;;;;;;3.08;0.98;;;18.90;93.80;;;;;;5049296;28;20041;-70
2023/05/30 10:04:10;;;;;;;14.80;1.60;;;19.00;94.20;;;;;;5048588;28;20116;-70
2023/05/30 10:06:40;;;;;;;10.68;1.55;;;19.00;94.10;;;;;;5041734;28;20044;-70
2023/05/30 10:09:07;;;;;;;4.80;1.03;;;19.10;94.40;;;;;;5037764;28;20086;-70
2023/05/30 10:11:32;;;;;;;4.57;0.65;;;19.00;94.40;;;;;;5038203;28;20034;-71
2023/05/30 10:13:59;;;;;;;2.63;0.77;;;19.00;95.00;;;;;;5043556;28;20098;-71
2023/05/30 10:16:27;;;;;;;4.40;1.23;;;18.80;93.90;;;;;;5035991;28;20041;-68
2023/05/30 10:18:56;;;;;;;2.42;0.80;;;18.80;93.20;;;;;;5038601;28;20029;-71
2023/05/30 10:21:23;;;;;;;4.35;1.30;;;18.70;93.50;;;;;;5031478;28;20088;-70
2023/05/30 10:23:51;;;;;;;2.13;0.70;;;18.60;94.20;;;;;;5040373;28;20029;-70
2023/05/30 10:26:20;;;;;;;2.80;0.95;;;18.70;94.60;;;;;;5038358;28;20083;-69
2023/05/30 10:28:47;;;;;;;10.45;1.52;;;18.70;95.10;;;;;;5035923;28;20041;-71
2023/05/30 10:31:14;;;;;;;7.05;0.85;;;18.80;94.90;;;;;;5034973;28;20029;-70
2023/05/30 10:33:43;;;;;;;4.90;0.88;;;18.80;94.70;;;;;;5034191;28;20021;-70
2023/05/30 10:36:09;;;;;;;4.93;1.25;;;18.80;95.00;;;;;;5031048;28;20064;-70
2023/05/30 10:38:43;;;;;;;6.00;1.95;;;18.80;95.40;;;;;;5026990;28;20029;-72
2023/05/30 10:41:24;;;;;;;4.38;0.88;;;18.90;95.50;;;;;;5031492;28;20040;-70
2023/05/30 10:44:11;;;;;;;5.30;1.10;;;18.90;95.50;;;;;;5027570;28;20037;-71
2023/05/30 10:47:14;;;;;;;7.95;1.27;;;19.00;95.10;;;;;;5037771;28;20028;-71
2023/05/30 10:49:40;;;;;;;3.35;0.75;;;18.90;94.50;;;;;;5029894;28;20517;-70
2023/05/30 10:52:09;;;;;;;5.05;0.90;;;18.80;95.00;;;;;;5029986;28;20500;-70
2023/05/30 10:54:37;;;;;;;1.80;0.70;;;18.80;95.00;;;;;;5031490;28;20037;-70
2023/05/30 10:57:26;;;;;;;3.88;1.33;;;18.90;95.40;;;;;;5033582;28;20082;-69
2023/05/30 11:00:09;;;;;;;7.15;1.13;;;18.90;95.20;;;;;;5033549;28;20120;-70
2023/05/30 11:02:38;;;;;;;3.15;1.02;;;18.90;95.20;;;;;;5027089;28;20041;-70
2023/05/30 11:05:09;;;;;;;3.65;0.70;;;18.80;95.60;;;;;;5033289;28;20109;-71
2023/05/30 11:07:40;;;;;;;2.38;0.82;;;18.70;96.00;;;;;;5031409;28;20095;-70
2023/05/30 11:10:07;;;;;;;4.68;0.85;;;18.70;95.70;;;;;;5030158;28;20047;-70
2023/05/30 11:12:39;;;;;;;3.13;0.73;;;18.70;95.80;;;;;;5027605;28;20525;-70
2023/05/30 11:15:06;;;;;;;7.32;1.00;;;18.80;96.10;;;;;;5031367;28;20103;-71
2023/05/30 11:17:34;;;;;;;2.13;0.82;;;18.70;96.10;;;;;;5028676;28;20046;-70
2023/05/30 11:20:08;;;;;;;4.82;1.08;;;18.80;96.20;;;;;;5031883;28;20031;-70
2023/05/30 11:22:34;;;;;;;5.72;1.00;;;18.60;96.10;;;;;;5026397;28;20049;-70
2023/05/30 11:25:26;;;;;;;2.35;1.13;;;18.60;96.80;;;;;;5034604;28;20398;-70
2023/05/30 11:28:03;;;;;;;1.42;0.63;;;18.60;96.90;;;;;;5031433;28;20042;-70
2023/05/30 11:30:30;;;;;;;3.00;0.80;;;18.70;96.30;;;;;;5028550;28;20037;-70
2023/05/30 11:32:58;;;;;;;1.17;0.52;;;19.00;96.70;;;;;;5032220;28;20033;-70
2023/05/30 11:35:24;;;;;;;7.60;0.95;;;19.30;96.30;;;;;;5028912;28;20045;-70
2023/05/30 11:37:50;;;;;;;5.07;0.73;;;19.20;96.00;;;;;;5029569;28;20507;-70
2023/05/30 11:40:16;;;;;;;3.97;0.50;;;19.20;96.10;;;;;;5029771;28;20033;-70
2023/05/30 11:42:42;;;;;;;2.65;0.93;;;19.20;96.10;;;;;;5029431;28;20037;-70
2023/05/30 11:45:08;;;;;;;2.22;0.90;;;19.00;95.90;;;;;;5030261;28;20167;-69
2023/05/30 11:47:34;;;;;;;2.90;0.70;;;18.90;96.20;;;;;;5030939;28;20511;-70
2023/05/30 11:50:00;;;;;;;2.97;0.80;;;18.80;96.60;;;;;;5029601;28;20094;-69
2023/05/30 11:52:25;;;;;;;2.00;0.93;;;18.90;97.00;;;;;;5027573;28;20038;-70
2023/05/30 11:54:57;;;;;;;2.72;0.82;;;18.70;96.50;;;;;;5032207;28;20041;-70
2023/05/30 11:57:23;;;;;;;7.05;1.13;;;18.70;96.70;;;;;;5028807;28;20537;-71
2023/05/30 11:59:49;;;;;;;1.30;0.60;;;18.50;96.80;;;;;;5029389;28;20037;-71
2023/05/30 12:02:15;;;;;;;6.63;1.42;;;18.40;96.90;;;;;;5030770;28;20038;-71
2023/05/30 12:04:42;;;;;;;2.28;1.02;;;18.30;96.80;;;;;;5028631;28;20487;-71
2023/05/30 12:07:08;;;;;;;1.58;0.75;;;18.20;97.30;;;;;;5036875;28;20117;-70
2023/05/30 12:09:39;;;;;;;2.17;0.90;;;18.20;97.40;;;;;;5032327;28;20041;-70
2023/05/30 12:12:06;;;;;;;3.65;0.73;;;18.00;97.30;;;;;;5030730;28;20135;-70
2023/05/30 12:14:44;;;;;;;1.33;0.63;;;17.90;97.70;;;;;;5026473;28;20044;-69
2023/05/30 12:17:18;;;;;;;1.00;0.52;;;17.90;97.90;;;;;;5032475;28;20057;-69
2023/05/30 12:19:44;;;;;;;1.60;0.63;;;18.00;97.70;;;;;;5029727;28;20033;-70
2023/05/30 12:22:20;;;;;;;3.50;0.63;;;17.80;97.90;;;;;;5025035;28;20026;-70
2023/05/30 12:24:46;;;;;;;0.95;0.47;;;17.80;97.80;;;;;;5029895;28;20071;-70
2023/05/30 12:27:17;;;;;;;1.60;0.52;;;17.70;97.80;;;;;;5031072;28;20128;-69
2023/05/30 12:29:43;;;;;;;2.33;0.80;;;17.60;98.40;;;;;;5029200;28;20029;-71
2023/05/30 12:32:09;;;;;;;1.65;0.80;;;17.60;98.70;;;;;;5030458;28;20400;-69
2023/05/30 12:34:37;;;;;;;2.83;0.70;;;17.60;98.80;;;;;;5028076;28;20219;-70
2023/05/30 12:37:06;;;;;;;2.15;0.70;;;17.60;98.50;;;;;;5030087;28;20025;-70
2023/05/30 12:39:32;;;;;;;2.40;0.70;;;17.60;98.90;;;;;;5028166;28;20045;-70
2023/05/30 12:41:58;;;;;;;2.38;0.82;;;17.70;98.80;;;;;;5036113;28;20032;-69
2023/05/30 12:44:23;;;;;;;2.20;0.70;;;17.60;98.60;;;;;;5040138;28;20043;-69
2023/05/30 12:46:49;;;;;;;3.00;0.60;;;17.60;98.70;;;;;;5038933;28;20053;-70
2023/05/30 12:49:15;;;;;;;1.73;0.65;;;17.60;98.60;;;;;;5041097;28;20033;-69
2023/05/30 12:51:41;;;;;;;3.83;0.90;;;17.40;98.90;;;;;;5038794;28;20025;-70